• Join FlightAware (Why Join?)
  • Login
  • US Flag 
09:57AM EDT


 

Airport Tracker/Info


-or-


 

Live Flight TrackerFlight Track Log ✈ FLG3861 ✈ 06-Apr-2014 ✈ KDTW - KBGM

Flight Track Log - Related Links

Times and Time Zones

All times are in EDT time to prevent confusion due to time zone crossing. See the FLG3861 flight status page for this flight to view local times or setup timezone preferences in your user account.

Time Position Orientation Groundspeed Altitude Reporting Facility
EDT Latitude Longitude Course Direction KTS MPH feet Rate Location/Type
09:50PM 42.2075 -83.3503 181° South 152 175 1,200  Level Cleveland Center
09:51PM 42.1550 -83.3514 181° South 192 221 4,000 2,220 Climbing Cleveland Center
09:52PM 42.1453 -83.3458 157° South 206 237 4,300 2,160 Climbing Cleveland Center
09:52PM 42.1356 -83.2756 101° East 287 330 6,200 2,220 Climbing Cleveland Center
09:53PM 42.1383 -83.2631 73° East 251 289 6,600 3,000 Climbing Cleveland Center
09:54PM 42.1658 -83.1564 71° East 284 327 10,100 2,400 Climbing Cleveland Center
09:55PM 42.1994 -83.0431 68° East 341 392 11,600 1,980 Climbing Cleveland Center
09:56PM 42.2356 -82.9194 68° East 356 410 14,200 2,100 Climbing Cleveland Center
09:57PM 42.2731 -82.7897 69° East 370 426 15,900 1,800 Climbing Cleveland Center
09:58PM 42.3217 -82.6231 68° East 399 459 17,900 1,800 Climbing Cleveland Center
09:59PM 42.3333 -82.4736 84° East 409 471 19,600 1,620 Climbing Cleveland Center
10:00PM 42.3292 -82.3197 92° East 407 468 21,300 1,380 Climbing Cleveland Center
10:01PM 42.3253 -82.1647 92° East 411 473 22,500 1,020 Climbing Cleveland Center
10:02PM 42.3189 -81.9964 93° East 425 489 23,400 780 Climbing Cleveland Center
10:03PM 42.3131 -81.8283 93° East 438 504 24,100 -240 Climbing Cleveland Center
10:04PM 42.3075 -81.6706 93° East 422 486 23,000 -600 Descending Cleveland Center
10:05PM 42.3028 -81.5094 92° East 420 483 23,000  Level Cleveland Center
10:06PM 42.2950 -81.3372 93° East 447 514 23,000  Level Cleveland Center
10:07PM 42.2889 -81.1628 93° East 457 526 23,000  Level Cleveland Center
10:08PM 42.2814 -80.9861 93° East 462 532 23,000  Level Cleveland Center
10:09PM 42.2739 -80.8075 93° East 466 536 23,000  Level Cleveland Center
10:10PM 42.2656 -80.6300 94° East 468 539 23,000  Level Cleveland Center
10:11PM 42.2575 -80.4511 93° East 468 539 23,000  Level Cleveland Center
10:12PM 42.2500 -80.2722 93° East 473 544 23,000  Level Cleveland Center
10:13PM 42.2414 -80.0942 94° East 474 545 23,000  Level Cleveland Center
10:14PM 42.2314 -79.9211 94° East 470 541 23,000  Level Cleveland Center
10:15PM 42.2208 -79.7081 94° East 473 544 23,000  Level Cleveland Center
10:16PM 42.2111 -79.5314 94° East 476 548 23,000  Level Cleveland Center
10:17PM 42.2011 -79.3536 94° East 477 549 23,000  Level Cleveland Center
10:18PM 42.1908 -79.1775 94° East 476 548 23,000  Level Cleveland Center
10:19PM 42.1900 -78.9994 90° East 477 549 23,000  Level Cleveland Center
10:20PM 42.1950 -78.8011 88° East 477 549 23,000  Level Cleveland Center
10:21PM 42.1972 -78.6222 89° East 478 550 23,000  Level Cleveland Center
10:22PM 42.2006 -78.4453 88° East 477 549 23,000  Level Cleveland Center
10:23PM 42.2025 -78.2672 89° East 477 549 23,000 -120 Level Cleveland Center
10:24PM 42.2050 -78.0894 89° East 477 549 22,800 -900 Descending Cleveland Center
10:25PM 42.2056 -77.9139 90° East 477 549 21,200 -1,560 Descending Cleveland Center
10:26PM 42.2075 -77.7431 89° East 466 536 19,700 -1,440 Descending Cleveland Center
10:27PM 42.2089 -77.5781 89° East 453 521 18,300 -1,500 Descending Cleveland Center
10:28PM 42.2097 -77.3825 90° East 444 511 16,700 -1,560 Descending Cleveland Center
10:29PM 42.2103 -77.2214 90° East 437 503 15,200 -960 Descending Cleveland Center
10:30PM 42.2111 -77.0631 90° East 430 495 14,800 -960 Descending Cleveland Center
10:32PM 42.2108 -76.9133 90° East 408 470 13,300 -1,500 Descending Cleveland Center
10:33PM 42.2117 -76.7706 90° East 389 448 11,800 -1,440 Descending Cleveland Center
10:34PM 42.2117 -76.6481 90° East 334 384 10,400 -1,320 Descending Cleveland Center
10:35PM 42.2150 -76.5394 88° East 297 342 9,200 -720 Descending Cleveland Center
10:36PM 42.2356 -76.4369 75° East 286 329 9,000 -900 Descending Cleveland Center
10:37PM 42.2533 -76.3289 77° East 286 329 7,400 -1,740 Descending Cleveland Center
10:38PM 42.2700 -76.2328 77° East 272 313 5,500 -1,680 Descending Cleveland Center
10:39PM 42.2858 -76.1483 76° East 241 277 4,000 -1,020 Descending Cleveland Center
10:40PM 42.2983 -76.0700 78° East 193 222 3,500 -420 Descending Cleveland Center
10:41PM 42.2783 -76.0381 130° Southeast 172 198 3,200 -300 Descending Cleveland Center